createdAt,value
2022-10-13T00:01:49.243Z,13.48
2022-10-13T00:04:15.664Z,13.45
2022-10-13T00:06:42.060Z,13.46
2022-10-13T00:09:08.525Z,13.48
2022-10-13T00:11:34.917Z,12.38
2022-10-13T00:14:04.059Z,13.26
2022-10-13T00:16:32.225Z,13.43
2022-10-13T00:18:59.158Z,12.94
2022-10-13T00:21:27.414Z,13.35
2022-10-13T00:23:54.776Z,13.36
2022-10-13T00:26:23.780Z,13.43
2022-10-13T00:28:52.742Z,13.38
2022-10-13T00:31:28.732Z,13.45
2022-10-13T00:33:55.624Z,13.33
2022-10-13T00:36:23.758Z,13.25
2022-10-13T00:38:50.728Z,13.27
2022-10-13T00:41:17.759Z,13.26
2022-10-13T00:44:03.742Z,13.31
2022-10-13T00:46:33.530Z,13.33
2022-10-13T00:49:08.062Z,13.27
2022-10-13T00:51:40.605Z,13.25
2022-10-13T00:54:09.124Z,13.22
2022-10-13T00:56:37.532Z,13.24
2022-10-13T00:59:09.221Z,13.24
2022-10-13T01:01:35.697Z,11.21
2022-10-13T01:04:02.109Z,8.99
2022-10-13T01:06:28.677Z,11.22
2022-10-13T01:08:55.083Z,12.36
2022-10-13T01:11:51.443Z,12.89
2022-10-13T01:14:33.412Z,12.92
2022-10-13T01:17:18.660Z,13.02
2022-10-13T01:20:16.969Z,13.09
2022-10-13T01:23:20.954Z,13.16
2022-10-13T01:26:24.636Z,12.91
2022-10-13T01:29:09.304Z,12.94
2022-10-13T01:31:55.516Z,13.05
2022-10-13T01:34:37.432Z,13.06
2022-10-13T01:37:45.732Z,13.12
2022-10-13T01:40:24.972Z,13.07
2022-10-13T01:42:57.901Z,13.12
2022-10-13T01:45:31.938Z,13.08
2022-10-13T01:48:02.053Z,12.98
2022-10-13T01:50:28.555Z,9.37
2022-10-13T01:52:56.237Z,8.27
2022-10-13T01:55:22.760Z,8.88
2022-10-13T01:57:49.161Z,10.29
2022-10-13T02:00:21.207Z,12.05
2022-10-13T02:03:11.422Z,12.05
2022-10-13T02:05:40.508Z,12.56
2022-10-13T02:08:21.662Z,12.64
2022-10-13T02:10:58.829Z,12.67
2022-10-13T02:13:29.465Z,12.68
2022-10-13T02:16:00.561Z,12.74
2022-10-13T02:18:31.694Z,12.77
2022-10-13T02:20:58.985Z,12.67
2022-10-13T02:23:26.847Z,12.72
2022-10-13T02:25:53.775Z,12.77
2022-10-13T02:28:20.414Z,12.81
2022-10-13T02:30:46.902Z,12.76
2022-10-13T02:33:14.436Z,12.76
2022-10-13T02:35:41.263Z,12.79
2022-10-13T02:38:07.792Z,12.81
2022-10-13T02:40:34.352Z,12.78
2022-10-13T02:43:00.873Z,12.77
2022-10-13T02:45:27.344Z,12.75
2022-10-13T02:47:54.010Z,8.86
2022-10-13T02:50:20.508Z,9.33
2022-10-13T02:52:47.044Z,11.69
2022-10-13T02:55:13.852Z,12.35
2022-10-13T02:57:40.278Z,12.45
2022-10-13T03:00:07.479Z,12.55
2022-10-13T03:02:34.154Z,12.56
2022-10-13T03:05:00.551Z,12.56
2022-10-13T03:07:27.249Z,12.52
2022-10-13T03:09:53.667Z,12.65
2022-10-13T03:12:20.389Z,12.58
2022-10-13T03:14:46.957Z,12.63
2022-10-13T03:17:13.707Z,12.62
2022-10-13T03:19:40.454Z,12.58
2022-10-13T03:22:06.887Z,12.57
2022-10-13T03:24:33.296Z,12.58
2022-10-13T03:26:59.725Z,12.55
2022-10-13T03:29:26.228Z,12.57
2022-10-13T03:31:52.608Z,12.59
2022-10-13T03:34:20.273Z,12.55
2022-10-13T03:36:46.838Z,12.55
2022-10-13T03:39:13.711Z,12.54
2022-10-13T03:41:40.260Z,12.59
2022-10-13T03:44:07.552Z,12.52
2022-10-13T03:46:34.083Z,12.42
2022-10-13T03:49:00.551Z,12.05
2022-10-13T03:51:26.979Z,12.42
2022-10-13T03:53:53.983Z,12.51
2022-10-13T03:56:26.575Z,12.51
2022-10-13T03:58:55.408Z,11.63
2022-10-13T04:01:24.266Z,12.35
2022-10-13T04:03:52.424Z,12.29
2022-10-13T04:06:18.939Z,12.26
2022-10-13T04:08:45.355Z,10.21
2022-10-13T04:11:14.155Z,12.02
2022-10-13T04:13:41.718Z,12.27
2022-10-13T04:16:13.081Z,12.35
2022-10-13T04:18:44.336Z,12.17
2022-10-13T04:21:14.881Z,12.32
2022-10-13T04:23:41.949Z,12.31
2022-10-13T04:26:20.406Z,12.36
2022-10-13T04:28:48.833Z,12.32
2022-10-13T04:31:15.867Z,12.33
2022-10-13T04:33:42.495Z,12.33
2022-10-13T04:36:11.534Z,12.40
2022-10-13T04:38:38.625Z,12.35
2022-10-13T04:41:06.875Z,12.41
2022-10-13T04:43:34.253Z,12.35
2022-10-13T04:46:05.256Z,12.34
2022-10-13T04:48:32.155Z,12.30
2022-10-13T04:51:03.177Z,12.31
2022-10-13T04:53:30.449Z,12.29
2022-10-13T04:56:00.093Z,12.32
2022-10-13T04:58:26.459Z,12.28
2022-10-13T05:00:53.008Z,12.24
2022-10-13T05:03:19.527Z,12.22
2022-10-13T05:05:46.211Z,12.26
2022-10-13T05:08:12.679Z,12.24
2022-10-13T05:10:39.581Z,12.18
2022-10-13T05:13:06.064Z,12.18
2022-10-13T05:15:32.517Z,12.20
2022-10-13T05:18:00.470Z,12.25
2022-10-13T05:20:27.223Z,12.35
2022-10-13T05:22:53.713Z,12.30
2022-10-13T05:25:20.413Z,12.18
2022-10-13T05:27:46.892Z,12.22
2022-10-13T05:30:13.612Z,12.23
2022-10-13T05:32:40.067Z,12.16
2022-10-13T05:35:06.862Z,12.17
2022-10-13T05:37:33.309Z,12.18
2022-10-13T05:39:59.786Z,12.16
2022-10-13T05:42:29.363Z,12.17
2022-10-13T05:44:56.994Z,12.15
2022-10-13T05:47:28.092Z,12.17
2022-10-13T05:49:55.463Z,12.07
2022-10-13T05:52:24.195Z,12.12
2022-10-13T05:54:55.188Z,12.14
2022-10-13T05:57:30.824Z,12.22
2022-10-13T06:00:09.099Z,12.24
2022-10-13T06:02:59.095Z,12.20
2022-10-13T06:05:27.512Z,12.16
2022-10-13T06:07:55.381Z,11.88
2022-10-13T06:10:23.316Z,12.00
2022-10-13T06:12:49.758Z,12.14
2022-10-13T06:15:16.658Z,12.11
2022-10-13T06:17:43.080Z,12.15
2022-10-13T06:20:10.477Z,12.12
2022-10-13T06:22:37.795Z,12.09
2022-10-13T06:25:06.294Z,12.09
2022-10-13T06:27:32.861Z,12.04
2022-10-13T06:29:59.322Z,12.10
2022-10-13T06:32:25.765Z,12.15
2022-10-13T06:34:52.458Z,12.15
2022-10-13T06:37:22.138Z,12.14
2022-10-13T06:39:51.209Z,11.91
2022-10-13T06:42:18.727Z,12.05
2022-10-13T06:44:45.446Z,12.02
2022-10-13T06:47:11.936Z,12.01
2022-10-13T06:49:38.348Z,12.12
2022-10-13T06:52:05.418Z,12.14
2022-10-13T06:54:31.822Z,11.97
2022-10-13T06:56:58.272Z,11.27
2022-10-13T06:59:26.474Z,11.64
2022-10-13T07:01:53.457Z,10.79
2022-10-13T07:04:19.823Z,10.43
2022-10-13T07:06:46.242Z,10.93
2022-10-13T07:09:12.682Z,11.71
2022-10-13T07:11:39.233Z,11.91
2022-10-13T07:14:05.743Z,11.94
2022-10-13T07:16:32.307Z,11.95
2022-10-13T07:18:58.761Z,11.98
2022-10-13T07:21:25.214Z,12.08
2022-10-13T07:23:51.724Z,11.16
2022-10-13T07:26:18.172Z,11.64
2022-10-13T07:28:44.931Z,11.93
2022-10-13T07:31:14.120Z,11.95
2022-10-13T07:33:42.252Z,12.00
2022-10-13T07:36:09.615Z,11.93
2022-10-13T07:38:36.652Z,11.97
2022-10-13T07:41:05.213Z,11.94
2022-10-13T07:43:31.946Z,11.94
2022-10-13T07:45:59.991Z,11.94
2022-10-13T07:48:27.442Z,11.96
2022-10-13T07:50:54.151Z,11.93
2022-10-13T07:53:20.646Z,11.96
2022-10-13T07:55:47.177Z,11.99
2022-10-13T07:58:13.722Z,11.93
2022-10-13T08:00:40.175Z,11.89
2022-10-13T08:03:06.821Z,11.91
2022-10-13T08:05:33.240Z,10.96
2022-10-13T08:07:59.711Z,10.42
2022-10-13T08:10:26.377Z,10.89
2022-10-13T08:12:52.863Z,10.71
2022-10-13T08:15:19.265Z,11.15
2022-10-13T08:17:45.782Z,10.73
2022-10-13T08:20:13.301Z,11.03
2022-10-13T08:22:39.691Z,10.73
2022-10-13T08:25:07.405Z,11.18
2022-10-13T08:27:50.284Z,11.52
2022-10-13T08:30:17.743Z,10.93
2022-10-13T08:32:44.311Z,10.50
2022-10-13T08:35:10.893Z,11.30
2022-10-13T08:37:37.369Z,11.67
2022-10-13T08:40:04.166Z,11.53
2022-10-13T08:42:30.652Z,11.28
2022-10-13T08:45:35.852Z,11.73
2022-10-13T08:47:57.504Z,11.82
2022-10-13T08:50:27.307Z,11.56
2022-10-13T08:52:57.490Z,11.49
2022-10-13T08:55:33.191Z,11.13
2022-10-13T08:58:01.832Z,10.81
2022-10-13T09:00:29.967Z,10.66
2022-10-13T09:03:17.272Z,10.84
2022-10-13T09:05:58.276Z,10.65
2022-10-13T09:08:29.319Z,10.57
2022-10-13T09:10:55.751Z,10.51
2022-10-13T09:13:22.207Z,11.06
2022-10-13T09:15:52.756Z,11.42
2022-10-13T09:18:27.091Z,10.97
2022-10-13T09:21:09.695Z,10.74
2022-10-13T09:23:39.563Z,10.70
2022-10-13T09:26:15.815Z,10.66
2022-10-13T09:28:42.678Z,11.17
2022-10-13T09:31:19.164Z,10.90
2022-10-13T09:33:46.458Z,11.17
2022-10-13T09:36:15.508Z,10.85
2022-10-13T09:38:45.409Z,11.39
2022-10-13T09:41:20.851Z,11.59
2022-10-13T09:43:47.275Z,11.48
2022-10-13T09:46:25.185Z,11.47
2022-10-13T09:48:55.751Z,11.55
2022-10-13T09:51:39.490Z,11.40
2022-10-13T09:54:07.281Z,11.08
2022-10-13T09:56:43.529Z,11.14
2022-10-13T09:59:24.026Z,11.44
2022-10-13T10:01:54.169Z,11.62
2022-10-13T10:04:26.407Z,11.20
2022-10-13T10:06:52.910Z,11.02
2022-10-13T10:09:33.222Z,11.20
2022-10-13T10:12:01.407Z,11.57
2022-10-13T10:14:29.135Z,11.78
2022-10-13T10:17:17.019Z,11.84
2022-10-13T10:19:49.521Z,11.72
2022-10-13T10:22:30.385Z,11.78
2022-10-13T10:25:28.009Z,12.17
2022-10-13T10:28:12.999Z,11.90
2022-10-13T10:30:53.997Z,11.96
2022-10-13T10:33:28.178Z,11.85
2022-10-13T10:36:04.009Z,11.95
2022-10-13T10:38:49.087Z,11.70
2022-10-13T10:41:25.712Z,11.74
2022-10-13T10:44:00.531Z,11.77
2022-10-13T10:46:34.601Z,11.92
2022-10-13T10:49:04.472Z,11.95
2022-10-13T10:51:36.633Z,12.00
2022-10-13T10:54:23.272Z,12.05
2022-10-13T10:56:56.055Z,12.04
2022-10-13T10:59:40.212Z,11.56
2022-10-13T11:02:06.538Z,11.89
2022-10-13T11:04:43.072Z,11.98
2022-10-13T11:07:34.487Z,12.02
2022-10-13T11:10:05.106Z,12.03
2022-10-13T11:13:01.065Z,12.06
2022-10-13T11:15:31.152Z,12.27
2022-10-13T11:17:57.690Z,12.13
2022-10-13T11:20:25.366Z,12.15
2022-10-13T11:22:57.551Z,11.93
2022-10-13T11:25:40.673Z,11.98
2022-10-13T11:28:22.877Z,11.94
2022-10-13T11:30:57.467Z,11.73
2022-10-13T11:33:38.999Z,11.88
2022-10-13T11:36:30.362Z,11.99
2022-10-13T11:39:09.019Z,11.96
2022-10-13T11:41:45.959Z,12.09
2022-10-13T11:44:31.092Z,11.87
2022-10-13T11:47:26.788Z,11.90
2022-10-13T11:50:20.988Z,11.89
2022-10-13T11:53:13.554Z,11.89
2022-10-13T11:55:57.778Z,11.90
2022-10-13T11:58:25.736Z,11.59
2022-10-13T12:00:59.357Z,11.96
2022-10-13T12:03:38.293Z,12.20
2022-10-13T12:06:15.859Z,11.97
2022-10-13T12:08:47.682Z,12.29
2022-10-13T12:11:27.564Z,12.43
2022-10-13T12:13:54.855Z,12.54
2022-10-13T12:16:21.679Z,12.69
2022-10-13T12:18:48.388Z,12.54
2022-10-13T12:21:17.524Z,12.72
2022-10-13T12:23:44.271Z,12.86
2022-10-13T12:26:20.905Z,12.96
2022-10-13T12:28:54.626Z,12.91
2022-10-13T12:31:24.423Z,13.01
2022-10-13T12:33:55.141Z,12.75
2022-10-13T12:36:29.323Z,12.84
2022-10-13T12:39:01.583Z,13.06
2022-10-13T12:41:31.916Z,12.90
2022-10-13T12:44:01.146Z,12.75
2022-10-13T12:46:43.961Z,12.42
2022-10-13T12:49:23.680Z,12.22
2022-10-13T12:51:56.422Z,12.24
2022-10-13T12:54:27.685Z,11.92
2022-10-13T12:56:58.332Z,12.15
2022-10-13T12:59:26.635Z,12.26
2022-10-13T13:02:19.241Z,12.38
2022-10-13T13:04:45.869Z,12.06
2022-10-13T13:07:32.227Z,12.11
2022-10-13T13:10:07.666Z,12.50
2022-10-13T13:12:36.499Z,12.29
2022-10-13T13:15:27.165Z,12.62
2022-10-13T13:17:58.959Z,12.82
2022-10-13T13:20:31.746Z,12.77
2022-10-13T13:22:58.820Z,12.84
2022-10-13T13:25:25.848Z,12.82
2022-10-13T13:27:53.023Z,12.92
2022-10-13T13:30:21.516Z,13.19
2022-10-13T13:32:48.941Z,13.00
2022-10-13T13:35:15.731Z,12.63
2022-10-13T13:37:50.589Z,12.70
2022-10-13T13:40:23.257Z,12.52
2022-10-13T13:42:49.747Z,12.33
2022-10-13T13:45:18.921Z,12.46
2022-10-13T13:47:45.975Z,12.56
2022-10-13T13:50:27.797Z,12.50
2022-10-13T13:52:54.422Z,12.53
2022-10-13T13:55:20.943Z,12.69
2022-10-13T13:57:47.357Z,12.66
2022-10-13T14:00:16.130Z,12.68
2022-10-13T14:02:43.938Z,13.18
2022-10-13T14:05:11.293Z,13.24
2022-10-13T14:07:37.999Z,13.32
2022-10-13T14:10:05.685Z,13.47
2022-10-13T14:12:33.356Z,13.53
2022-10-13T14:15:00.397Z,13.56
2022-10-13T14:17:28.111Z,13.37
2022-10-13T14:19:55.195Z,13.17
2022-10-13T14:22:22.870Z,12.94
2022-10-13T14:24:49.627Z,12.96
2022-10-13T14:27:16.192Z,12.83
2022-10-13T14:29:42.616Z,13.38
2022-10-13T14:32:09.125Z,13.50
2022-10-13T14:34:35.599Z,13.48
2022-10-13T14:37:02.158Z,13.58
2022-10-13T14:39:28.609Z,13.66
2022-10-13T14:41:54.988Z,13.63
2022-10-13T14:44:21.461Z,13.21
2022-10-13T14:46:47.925Z,13.13
2022-10-13T14:49:14.359Z,13.16
2022-10-13T14:51:40.807Z,12.99
2022-10-13T14:54:07.619Z,12.76
2022-10-13T14:56:34.532Z,12.73
2022-10-13T14:59:03.950Z,12.81
2022-10-13T15:01:30.645Z,12.85
2022-10-13T15:03:57.222Z,12.85
2022-10-13T15:06:25.109Z,12.88
2022-10-13T15:08:52.265Z,13.07
2022-10-13T15:11:20.184Z,13.01
2022-10-13T15:13:46.660Z,12.96
2022-10-13T15:16:22.155Z,13.01
2022-10-13T15:18:48.822Z,12.82
2022-10-13T15:21:15.818Z,12.80
2022-10-13T15:23:42.548Z,12.72
2022-10-13T15:26:10.965Z,12.77
2022-10-13T15:28:46.268Z,12.85
2022-10-13T15:31:13.518Z,12.90
2022-10-13T15:33:42.845Z,12.87
2022-10-13T15:36:09.311Z,12.90
2022-10-13T15:38:35.762Z,12.64
2022-10-13T15:41:04.550Z,12.76
2022-10-13T15:43:31.504Z,12.83
2022-10-13T15:46:06.854Z,12.86
2022-10-13T15:48:33.707Z,12.83
2022-10-13T15:51:01.288Z,12.84
2022-10-13T15:53:29.462Z,12.90
2022-10-13T15:55:55.939Z,12.89
2022-10-13T15:58:22.640Z,12.90
2022-10-13T16:00:49.087Z,12.70
2022-10-13T16:03:17.447Z,12.68
2022-10-13T16:05:47.907Z,12.86
2022-10-13T16:08:14.426Z,12.87
2022-10-13T16:10:42.267Z,12.90
2022-10-13T16:13:12.335Z,12.89
2022-10-13T16:15:38.898Z,12.88
2022-10-13T16:18:05.426Z,12.91
2022-10-13T16:20:34.957Z,12.90
2022-10-13T16:23:01.977Z,12.90
2022-10-13T16:25:29.350Z,12.90
2022-10-13T16:27:56.984Z,12.95
2022-10-13T16:30:23.427Z,12.85
2022-10-13T16:32:50.030Z,12.87
2022-10-13T16:35:16.463Z,12.89
2022-10-13T16:37:42.967Z,12.91
2022-10-13T16:40:09.790Z,12.86
2022-10-13T16:42:36.273Z,12.87
2022-10-13T16:45:03.151Z,12.91
2022-10-13T16:47:29.631Z,12.95
2022-10-13T16:49:56.118Z,12.90
2022-10-13T16:52:22.542Z,12.92
2022-10-13T16:54:49.361Z,12.92
2022-10-13T16:57:15.853Z,12.54
2022-10-13T16:59:42.332Z,12.83
2022-10-13T17:02:14.405Z,12.92
2022-10-13T17:04:41.381Z,12.70
2022-10-13T17:07:08.007Z,12.31
2022-10-13T17:09:34.432Z,12.62
2022-10-13T17:12:01.257Z,12.85
2022-10-13T17:14:27.713Z,12.89
2022-10-13T17:16:57.575Z,12.91
2022-10-13T17:19:24.613Z,12.88
2022-10-13T17:21:51.064Z,12.92
2022-10-13T17:24:18.711Z,12.92
2022-10-13T17:26:45.127Z,12.92
2022-10-13T17:29:11.640Z,12.91
2022-10-13T17:31:38.158Z,12.91
2022-10-13T17:34:06.077Z,12.88
2022-10-13T17:36:34.295Z,12.93
2022-10-13T17:39:08.607Z,12.93
2022-10-13T17:41:35.546Z,12.92
2022-10-13T17:44:02.055Z,12.95
2022-10-13T17:46:36.893Z,12.91
2022-10-13T17:49:05.798Z,12.89
2022-10-13T17:51:32.251Z,12.94
2022-10-13T17:53:59.864Z,12.96
2022-10-13T17:56:26.891Z,12.22
2022-10-13T17:58:53.648Z,11.96
2022-10-13T18:01:23.729Z,11.46
2022-10-13T18:03:53.368Z,11.83
2022-10-13T18:06:20.397Z,12.63
2022-10-13T18:08:47.002Z,11.89
2022-10-13T18:11:16.089Z,12.61
2022-10-13T18:13:44.498Z,12.79
2022-10-13T18:16:16.907Z,12.83
2022-10-13T18:18:44.990Z,12.81
2022-10-13T18:21:14.297Z,12.86
2022-10-13T18:23:41.450Z,12.87
2022-10-13T18:26:13.744Z,12.85
2022-10-13T18:28:43.295Z,12.82
2022-10-13T18:31:14.243Z,12.85
2022-10-13T18:33:41.479Z,12.87
2022-10-13T18:36:12.119Z,12.88
2022-10-13T18:38:38.704Z,12.88
2022-10-13T18:41:05.272Z,12.87
2022-10-13T18:43:31.731Z,12.87
2022-10-13T18:46:02.766Z,12.90
2022-10-13T18:48:29.534Z,12.88
2022-10-13T18:50:56.093Z,12.91
2022-10-13T18:53:23.329Z,12.89
2022-10-13T18:55:49.791Z,12.90
2022-10-13T18:58:16.290Z,12.94
2022-10-13T19:00:42.726Z,12.93
2022-10-13T19:03:09.520Z,12.91
2022-10-13T19:05:39.591Z,12.87
2022-10-13T19:08:09.382Z,12.31
2022-10-13T19:10:36.888Z,12.09
2022-10-13T19:13:03.788Z,12.63
2022-10-13T19:15:30.269Z,12.77
2022-10-13T19:17:56.683Z,12.81
2022-10-13T19:20:23.153Z,12.84
2022-10-13T19:22:49.767Z,12.91
2022-10-13T19:25:16.396Z,12.80
2022-10-13T19:27:43.098Z,12.84
2022-10-13T19:30:10.284Z,12.81
2022-10-13T19:32:39.626Z,12.70
2022-10-13T19:35:06.296Z,12.62
2022-10-13T19:37:32.821Z,12.75
2022-10-13T19:39:59.386Z,12.79
2022-10-13T19:42:25.920Z,12.82
2022-10-13T19:44:52.374Z,12.86
2022-10-13T19:47:19.158Z,12.81
2022-10-13T19:49:46.779Z,12.78
2022-10-13T19:52:13.280Z,11.67
2022-10-13T19:54:39.819Z,11.46
2022-10-13T19:57:06.415Z,11.97
2022-10-13T19:59:32.833Z,12.54
2022-10-13T20:01:59.323Z,12.69
2022-10-13T20:04:25.913Z,12.71
2022-10-13T20:06:52.352Z,12.71
2022-10-13T20:09:19.232Z,12.78
2022-10-13T20:11:47.532Z,12.82
2022-10-13T20:14:14.679Z,12.12
2022-10-13T20:16:41.696Z,11.52
2022-10-13T20:19:10.683Z,11.85
2022-10-13T20:21:37.148Z,12.53
2022-10-13T20:24:03.658Z,12.60
2022-10-13T20:26:30.213Z,12.70
2022-10-13T20:28:58.114Z,12.71
2022-10-13T20:31:25.477Z,12.59
2022-10-13T20:33:57.059Z,12.73
2022-10-13T20:36:25.332Z,12.72
2022-10-13T20:38:52.209Z,12.74
2022-10-13T20:41:27.144Z,12.73
2022-10-13T20:43:55.427Z,12.70
2022-10-13T20:46:23.628Z,12.71
2022-10-13T20:49:10.021Z,12.66
2022-10-13T20:51:37.692Z,12.79
2022-10-13T20:54:04.273Z,12.75
2022-10-13T20:56:30.659Z,12.70
2022-10-13T20:59:02.990Z,12.77
2022-10-13T21:01:29.362Z,12.70
2022-10-13T21:03:56.028Z,12.67
2022-10-13T21:06:24.295Z,12.77
2022-10-13T21:08:51.252Z,12.76
2022-10-13T21:11:20.089Z,12.30
2022-10-13T21:13:47.449Z,12.45
2022-10-13T21:16:29.071Z,12.15
2022-10-13T21:18:57.022Z,12.57
2022-10-13T21:21:26.614Z,12.66
2022-10-13T21:23:53.757Z,12.70
2022-10-13T21:26:22.291Z,12.75
2022-10-13T21:28:50.017Z,12.70
2022-10-13T21:31:18.351Z,12.61
2022-10-13T21:33:45.058Z,12.16
2022-10-13T21:36:24.178Z,12.41
2022-10-13T21:38:53.441Z,12.63
2022-10-13T21:41:20.489Z,12.72
2022-10-13T21:43:47.133Z,12.73
2022-10-13T21:46:22.378Z,12.77
2022-10-13T21:48:49.321Z,12.75
2022-10-13T21:51:37.155Z,12.74
2022-10-13T21:54:09.064Z,12.75
2022-10-13T21:56:35.730Z,12.71
2022-10-13T21:59:02.436Z,12.62
2022-10-13T22:01:29.208Z,12.67
2022-10-13T22:03:58.255Z,12.69
2022-10-13T22:06:25.865Z,12.74
2022-10-13T22:08:54.143Z,12.70
2022-10-13T22:11:21.866Z,12.63
2022-10-13T22:13:48.297Z,12.64
2022-10-13T22:16:20.959Z,12.63
2022-10-13T22:18:48.426Z,12.59
2022-10-13T22:21:18.239Z,12.63
2022-10-13T22:23:45.667Z,12.69
2022-10-13T22:26:13.652Z,12.72
2022-10-13T22:28:40.253Z,12.67
2022-10-13T22:31:12.315Z,12.73
2022-10-13T22:33:40.376Z,12.60
2022-10-13T22:36:17.348Z,12.37
2022-10-13T22:38:48.187Z,12.71
2022-10-13T22:41:15.754Z,12.75
2022-10-13T22:43:46.715Z,12.73
2022-10-13T22:46:15.227Z,12.75
2022-10-13T22:48:42.034Z,12.77
2022-10-13T22:51:09.577Z,12.77
2022-10-13T22:53:36.575Z,12.78
2022-10-13T22:56:11.603Z,12.77
2022-10-13T22:58:38.112Z,12.76
2022-10-13T23:01:06.557Z,12.78
2022-10-13T23:03:33.064Z,12.74
2022-10-13T23:05:59.473Z,12.79
2022-10-13T23:08:25.878Z,12.79
2022-10-13T23:10:52.347Z,12.81
2022-10-13T23:13:18.732Z,12.80
2022-10-13T23:15:45.128Z,12.79
2022-10-13T23:18:11.590Z,12.82
2022-10-13T23:20:41.842Z,12.76
2022-10-13T23:23:09.329Z,12.76
2022-10-13T23:25:37.480Z,12.78
2022-10-13T23:28:04.759Z,12.82
2022-10-13T23:30:31.193Z,12.76
2022-10-13T23:32:57.632Z,12.77
2022-10-13T23:35:24.145Z,12.83
2022-10-13T23:37:52.772Z,12.79
2022-10-13T23:40:19.706Z,12.79
2022-10-13T23:42:46.151Z,12.79
2022-10-13T23:45:12.610Z,12.79
2022-10-13T23:47:38.982Z,12.79
2022-10-13T23:50:05.940Z,12.80
2022-10-13T23:52:32.372Z,12.82
2022-10-13T23:54:58.809Z,12.82
2022-10-13T23:57:25.200Z,12.84
2022-10-13T23:59:51.664Z,12.55
